^^
Saratoga-Weather Station Historical Data
Daily Summary for May 21, 2021 Units:  Metric    English   Both
Daily Weekly Monthly Yearly Custom
  High: Low: Average:
Temperature: 16.4 °C 6.5 °C 11.5 °C
Dew Point: 14.3 °C 5.3 °C 8.5 °C
Humidity: 94% 63% 82%
Wind Speed: 32km/h 0km/h 7.6km/h
Wind Gust: 45.1km/h - -
Wind- - WSW
Pressure: 1016.3 hPa 995.6 hPa -
Precipitation: 18.8 mm    
Historical Graphs
 
 
Tabular Data for May 21, 2021
Time Temperature Dew Point Pressure Wind Wind Speed Wind Gust Humidity Rainfall Rate (Hourly) solar
00:00 16.3 °C 14.3 °C 1000.0 hPa NE 3.2 km/h 8 km/h 88% 0.0 mm 0 W/m2
00:05 16.3 °C 14.3 °C 1000.0 hPa NNW 7.9 km/h 8 km/h 88% 0.0 mm 0 W/m2
00:10 16.3 °C 14.3 °C 999.7 hPa SE 7.9 km/h 9.7 km/h 88% 0.0 mm 0 W/m2
00:15 16.2 °C 14.2 °C 999.7 hPa NNW 4.7 km/h 12.9 km/h 88% 0.0 mm 0 W/m2
00:20 16.2 °C 14.2 °C 999.7 hPa East 4.7 km/h 12.9 km/h 88% 0.0 mm 0 W/m2
00:25 16.2 °C 14.2 °C 999.3 hPa NNW 6.4 km/h 12.9 km/h 88% 0.0 mm 0 W/m2
00:30 16.2 °C 14.2 °C 999.3 hPa ENE 7.9 km/h 9.7 km/h 88% 0.0 mm 0 W/m2
00:35 16.2 °C 14.2 °C 999.0 hPa ENE 4.7 km/h 11.3 km/h 88% 0.0 mm 0 W/m2
00:40 16.2 °C 14.2 °C 999.0 hPa North 3.2 km/h 11.3 km/h 88% 0.0 mm 0 W/m2
00:45 16.2 °C 14.2 °C 998.6 hPa NW 3.2 km/h 8 km/h 88% 0.0 mm 0 W/m2
00:50 16.2 °C 14.2 °C 998.3 hPa North 6.4 km/h 6.4 km/h 88% 0.0 mm 0 W/m2
00:55 16.2 °C 14.2 °C 998.3 hPa North 4.7 km/h 6.4 km/h 88% 0.0 mm 0 W/m2
01:01 16.2 °C 14.2 °C 998.3 hPa North 3.2 km/h 12.9 km/h 88% 0.0 mm 0 W/m2
01:06 16.2 °C 14 °C 998.0 hPa ENE 3.2 km/h 9.7 km/h 87% 0.0 mm 0 W/m2
01:11 16.2 °C 14 °C 998.0 hPa ENE 3.2 km/h 12.9 km/h 87% 0.0 mm 0 W/m2
01:16 16.2 °C 14 °C 997.3 hPa NNW 7.9 km/h 9.7 km/h 87% 0.0 mm 0 W/m2
01:21 16.3 °C 14 °C 997.3 hPa West 4.7 km/h 12.9 km/h 86% 0.0 mm 0 W/m2
01:26 16.3 °C 13.8 °C 996.6 hPa NE 7.9 km/h 20.9 km/h 85% 0.0 mm 0 W/m2
01:31 16.3 °C 13.8 °C 996.6 hPa NW 7.9 km/h 16.1 km/h 85% 0.0 mm 0 W/m2
01:36 16.4 °C 13.9 °C 996.6 hPa ENE 1.4 km/h 17.7 km/h 85% 0.0 mm 0 W/m2
01:41 16.4 °C 13.9 °C 996.3 hPa NE 7.9 km/h 11.3 km/h 85% 0.0 mm 0 W/m2
01:46 16.4 °C 13.9 °C 995.9 hPa NE 1.4 km/h 12.9 km/h 85% 0.0 mm 0 W/m2
01:51 16.3 °C 13.8 °C 995.9 hPa East 3.2 km/h 12.9 km/h 85% 0.0 mm 0 W/m2
01:56 16.3 °C 14 °C 995.6 hPa ENE 4.7 km/h 12.9 km/h 86% 0.0 mm 0 W/m2
02:01 16.1 °C 13.9 °C 997.6 hPa West 16.3 km/h 20.9 km/h 87% 2.3 mm 0 W/m2
02:06 15.6 °C 13.8 °C 998.0 hPa West 6.4 km/h 25.7 km/h 89% 4.3 mm 0 W/m2
02:11 15.1 °C 13 °C 998.0 hPa NW 1.4 km/h 20.9 km/h 87% 4.3 mm 0 W/m2
02:16 14.5 °C 12 °C 997.6 hPa NW 4.7 km/h 14.5 km/h 85% 4.3 mm 0 W/m2
02:21 14.1 °C 11.3 °C 997.3 hPa West 9.7 km/h 22.5 km/h 83% 4.3 mm 0 W/m2
02:26 13.6 °C 10.9 °C 997.0 hPa WNW 11.1 km/h 11.3 km/h 84% 4.3 mm 0 W/m2
02:31 13.3 °C 10.5 °C 997.0 hPa West 9.7 km/h 24.1 km/h 83% 4.3 mm 0 W/m2
02:36 13.1 °C 10.5 °C 997.0 hPa NE 3.2 km/h 8 km/h 84% 4.6 mm 0 W/m2
02:41 13 °C 10.2 °C 996.6 hPa West 3.2 km/h 24.1 km/h 83% 4.6 mm 0 W/m2
02:46 12.9 °C 9.9 °C 997.0 hPa North 4.7 km/h 8 km/h 82% 4.6 mm 0 W/m2
02:51 12.9 °C 9.9 °C 997.0 hPa NNW 4.7 km/h 24.1 km/h 82% 4.6 mm 0 W/m2
02:56 12.9 °C 9.7 °C 997.0 hPa WNW 14.3 km/h 29 km/h 81% 4.6 mm 0 W/m2
03:01 12.9 °C 9.7 °C 997.0 hPa WNW 11.1 km/h 22.5 km/h 81% 1.8 mm 0 W/m2
03:06 12.9 °C 9.5 °C 997.0 hPa NW 17.7 km/h 29 km/h 80% 0.5 mm 0 W/m2
03:11 13 °C 9.3 °C 997.0 hPa WSW 11.1 km/h 20.9 km/h 78% 0.2 mm 0 W/m2
03:16 13 °C 9.1 °C 997.3 hPa WNW 17.7 km/h 20.9 km/h 77% 0.2 mm 0 W/m2
03:21 13.1 °C 9 °C 997.3 hPa West 11.1 km/h 19.3 km/h 76% 0.2 mm 0 W/m2
03:26 13.1 °C 9 °C 997.3 hPa NNW 16.3 km/h 22.5 km/h 76% 0.2 mm 0 W/m2
03:31 13.1 °C 9 °C 997.3 hPa NNW 6.4 km/h 30.6 km/h 76% 0.2 mm 0 W/m2
03:36 13.2 °C 8.9 °C 997.0 hPa NNW 7.9 km/h 22.5 km/h 75% 0.0 mm 0 W/m2
03:41 13.2 °C 8.7 °C 997.3 hPa SW 11.1 km/h 32.2 km/h 74% 0.0 mm 0 W/m2
03:46 13.3 °C 8.8 °C 997.0 hPa NNW 9.7 km/h 24.1 km/h 74% 0.0 mm 0 W/m2
03:51 13.3 °C 8.6 °C 997.0 hPa West 29 km/h 29 km/h 73% 0.0 mm 0 W/m2
03:56 13.3 °C 8.6 °C 997.0 hPa SW 13 km/h 17.7 km/h 73% 0.0 mm 0 W/m2
04:01 13.3 °C 8.6 °C 997.0 hPa WSW 16.3 km/h 19.3 km/h 73% 0.0 mm 0 W/m2
04:06 13.3 °C 8.6 °C 997.0 hPa NW 6.4 km/h 27.4 km/h 73% 0.0 mm 0 W/m2
04:11 13.3 °C 8.6 °C 997.0 hPa NNW 6.4 km/h 32.2 km/h 73% 0.0 mm 0 W/m2
04:16 13.4 °C 8.7 °C 997.0 hPa West 13 km/h 25.7 km/h 73% 0.0 mm 0 W/m2
04:21 13.4 °C 8.7 °C 997.0 hPa NE 4.7 km/h 24.1 km/h 73% 0.0 mm 0 W/m2
04:26 13.4 °C 8.7 °C 997.0 hPa SW 13 km/h 32.2 km/h 73% 0.0 mm 0 W/m2
04:31 13.4 °C 8.7 °C 996.6 hPa North 13 km/h 25.7 km/h 73% 0.0 mm 0 W/m2
04:36 13.4 °C 8.7 °C 996.6 hPa NNW 9.7 km/h 27.4 km/h 73% 0.0 mm 0 W/m2
04:41 13.4 °C 8.7 °C 997.0 hPa WNW 7.9 km/h 22.5 km/h 73% 0.0 mm 0 W/m2
04:46 13.4 °C 8.7 °C 997.0 hPa North 13 km/h 16.1 km/h 73% 0.0 mm 0 W/m2
04:51 13.4 °C 8.7 °C 997.0 hPa North 11.1 km/h 20.9 km/h 73% 0.0 mm 0 W/m2
04:56 13.4 °C 8.7 °C 997.0 hPa SSW 9.7 km/h 19.3 km/h 73% 0.0 mm 0 W/m2
05:01 13.3 °C 8.8 °C 997.0 hPa NNW 6.4 km/h 17.7 km/h 74% 0.0 mm 0 W/m2
05:06 13.3 °C 9 °C 997.0 hPa ENE 14.3 km/h 27.4 km/h 75% 0.0 mm 0 W/m2
05:11 13.1 °C 9 °C 997.3 hPa NNW 13 km/h 29 km/h 76% 0.0 mm 0 W/m2
05:17 13.1 °C 9 °C 997.3 hPa WSW 16.3 km/h 27.4 km/h 76% 0.0 mm 0 W/m2
05:22 13.1 °C 9 °C 997.3 hPa WSW 13 km/h 38.6 km/h 76% 0.0 mm 0 W/m2
05:27 13.1 °C 8.8 °C 997.6 hPa WSW 14.3 km/h 25.7 km/h 75% 0.0 mm 0 W/m2
05:32 13.2 °C 8.9 °C 997.6 hPa WSW 4.7 km/h 45.1 km/h 75% 0.0 mm 0 W/m2
05:37 13.2 °C 8.7 °C 997.6 hPa SW 3.2 km/h 27.4 km/h 74% 0.0 mm 0 W/m2
05:42 13.2 °C 8.7 °C 997.6 hPa West 11.1 km/h 45.1 km/h 74% 0.0 mm 0 W/m2
05:47 13.2 °C 8.5 °C 997.6 hPa WNW 7.9 km/h 20.9 km/h 73% 0.0 mm 0 W/m2
05:52 13.1 °C 8.4 °C 998.0 hPa West 4.7 km/h 19.3 km/h 73% 0.0 mm 0 W/m2
05:57 13 °C 8.5 °C 998.0 hPa West 11.1 km/h 20.9 km/h 74% 0.0 mm 0 W/m2
06:02 12.9 °C 8.4 °C 998.0 hPa West 17.7 km/h 20.9 km/h 74% 0.0 mm 0 W/m2
06:07 12.7 °C 8.4 °C 998.0 hPa NW 7.9 km/h 33.8 km/h 75% 0.0 mm 0 W/m2
06:12 12.6 °C 8.3 °C 998.3 hPa SW 16.3 km/h 30.6 km/h 75% 0.0 mm 0 W/m2
06:17 12.6 °C 8.1 °C 998.6 hPa East 6.4 km/h 24.1 km/h 74% 0.0 mm 0 W/m2
06:22 12.8 °C 7.9 °C 998.3 hPa West 17.7 km/h 29 km/h 72% 0.0 mm 0 W/m2
06:27 12.8 °C 7.9 °C 998.3 hPa NW 9.7 km/h 19.3 km/h 72% 0.0 mm 0 W/m2
06:32 12.8 °C 7.9 °C 998.3 hPa West 27.4 km/h 38.6 km/h 72% 0.0 mm 0 W/m2
06:37 12.8 °C 7.7 °C 998.3 hPa West 3.2 km/h 30.6 km/h 71% 0.0 mm 0 W/m2
06:42 12.8 °C 7.9 °C 998.0 hPa NNE 4.7 km/h 38.6 km/h 72% 0.0 mm 0 W/m2
06:47 12.8 °C 7.9 °C 998.6 hPa WNW 17.7 km/h 35.4 km/h 72% 0.0 mm 0 W/m2
06:52 12.7 °C 7.8 °C 998.6 hPa West 17.7 km/h 24.1 km/h 72% 0.0 mm 0 W/m2
06:57 12.6 °C 7.9 °C 999.0 hPa WSW 22.7 km/h 40.2 km/h 73% 0.0 mm 0 W/m2
07:02 12.4 °C 8.1 °C 999.0 hPa West 6.4 km/h 25.7 km/h 75% 0.0 mm 0 W/m2
07:07 11.9 °C 8.4 °C 999.3 hPa West 9.7 km/h 20.9 km/h 79% 0.0 mm 0 W/m2
07:12 11.5 °C 8.5 °C 999.7 hPa North 7.9 km/h 22.5 km/h 82% 0.0 mm 0 W/m2
07:17 11.2 °C 8.6 °C 999.7 hPa WSW 13 km/h 22.5 km/h 84% 0.2 mm 0 W/m2
07:22 10.9 °C 8.5 °C 999.7 hPa SW 3.2 km/h 24.1 km/h 85% 0.5 mm 0 W/m2
07:27 10.8 °C 8.6 °C 999.7 hPa West 11.1 km/h 17.7 km/h 86% 0.5 mm 0 W/m2
07:32 10.8 °C 8.6 °C 1000.0 hPa NW 16.3 km/h 24.1 km/h 86% 0.5 mm 0 W/m2
07:37 10.7 °C 8.6 °C 1000.3 hPa WNW 20.9 km/h 20.9 km/h 87% 0.5 mm 0 W/m2
07:42 10.6 °C 8.7 °C 1001.0 hPa WNW 19.5 km/h 37 km/h 88% 0.8 mm 0 W/m2
07:47 10.6 °C 8.7 °C 1001.4 hPa NW 9.7 km/h 20.9 km/h 88% 0.8 mm 0 W/m2
07:52 10.4 °C 8.7 °C 1001.4 hPa NNW 9.7 km/h 35.4 km/h 89% 0.8 mm 0 W/m2
07:57 10.3 °C 8.7 °C 1002.0 hPa WNW 13 km/h 30.6 km/h 90% 1.0 mm 0 W/m2
08:02 10.2 °C 8.6 °C 1002.0 hPa WSW 30.6 km/h 30.6 km/h 90% 1.5 mm 0 W/m2
08:07 10.2 °C 8.8 °C 1002.7 hPa WSW 17.7 km/h 30.6 km/h 91% 1.5 mm 0 W/m2
08:12 10.2 °C 8.6 °C 1002.7 hPa WNW 4.7 km/h 16.1 km/h 90% 1.5 mm 0 W/m2
08:17 10.2 °C 8.6 °C 1003.0 hPa West 14.3 km/h 24.1 km/h 90% 1.5 mm 0 W/m2
08:22 10.2 °C 8.6 °C 1003.4 hPa West 11.1 km/h 24.1 km/h 90% 1.3 mm 0 W/m2
08:27 10.1 °C 8.5 °C 1003.7 hPa NW 16.3 km/h 22.5 km/h 90% 1.0 mm 0 W/m2
08:32 10.1 °C 8.5 °C 1004.1 hPa NNW 7.9 km/h 17.7 km/h 90% 1.0 mm 0 W/m2
08:37 10.1 °C 8.5 °C 1004.4 hPa West 4.7 km/h 33.8 km/h 90% 0.8 mm 11 W/m2
08:42 10.1 °C 8.4 °C 1004.7 hPa West 14.3 km/h 22.5 km/h 89% 0.8 mm 11 W/m2
08:47 10.1 °C 8.2 °C 1004.7 hPa West 20.9 km/h 33.8 km/h 88% 0.8 mm 11 W/m2
08:52 10.1 °C 8.2 °C 1005.1 hPa WNW 11.1 km/h 22.5 km/h 88% 0.8 mm 21 W/m2
08:57 10.1 °C 8 °C 1005.8 hPa West 13 km/h 16.1 km/h 87% 0.5 mm 42 W/m2
09:02 10 °C 7.8 °C 1005.8 hPa West 32 km/h 32.2 km/h 86% 0.2 mm 62 W/m2
09:07 10 °C 7.6 °C 1005.8 hPa WSW 13 km/h 24.1 km/h 85% 0.0 mm 49 W/m2
09:12 10 °C 7.6 °C 1006.1 hPa WNW 9.7 km/h 20.9 km/h 85% 0.0 mm 53 W/m2
09:17 10.1 °C 7.7 °C 1006.4 hPa West 4.7 km/h 22.5 km/h 85% 0.0 mm 47 W/m2
09:22 10.1 °C 7.9 °C 1006.4 hPa West 14.3 km/h 22.5 km/h 86% 0.0 mm 56 W/m2
09:27 10.1 °C 7.9 °C 1006.8 hPa WNW 13 km/h 24.1 km/h 86% 0.0 mm 60 W/m2
09:32 10.2 °C 7.8 °C 1007.1 hPa West 14.3 km/h 25.7 km/h 85% 0.0 mm 51 W/m2
09:37 10.2 °C 7.8 °C 1007.1 hPa NW 19.5 km/h 24.1 km/h 85% 0.0 mm 76 W/m2
09:42 10.2 °C 7.8 °C 1007.5 hPa West 22.7 km/h 22.5 km/h 85% 0.0 mm 88 W/m2
09:47 10.3 °C 7.7 °C 1007.5 hPa WNW 9.7 km/h 24.1 km/h 84% 0.0 mm 74 W/m2
09:52 10.3 °C 7.7 °C 1007.8 hPa West 17.7 km/h 17.7 km/h 84% 0.0 mm 62 W/m2
09:57 10.3 °C 7.7 °C 1007.8 hPa NNW 6.4 km/h 12.9 km/h 84% 0.0 mm 62 W/m2
10:02 10.3 °C 7.7 °C 1008.1 hPa WSW 11.1 km/h 29 km/h 84% 0.0 mm 56 W/m2
10:07 10.3 °C 7.7 °C 1008.1 hPa SSW 11.1 km/h 24.1 km/h 84% 0.0 mm 83 W/m2
10:12 10.3 °C 7.7 °C 1008.5 hPa WNW 17.7 km/h 29 km/h 84% 0.0 mm 83 W/m2
10:17 10.4 °C 8 °C 1008.5 hPa WNW 3.2 km/h 17.7 km/h 85% 0.0 mm 67 W/m2
10:22 10.4 °C 8 °C 1008.5 hPa West 6.4 km/h 12.9 km/h 85% 0.0 mm 53 W/m2
10:27 10.4 °C 8 °C 1008.5 hPa West 11.1 km/h 14.5 km/h 85% 0.0 mm 69 W/m2
10:32 10.5 °C 8.1 °C 1008.5 hPa West 9.7 km/h 17.7 km/h 85% 0.0 mm 70 W/m2
10:37 10.6 °C 8.2 °C 1008.8 hPa West 3.2 km/h 14.5 km/h 85% 0.0 mm 77 W/m2
10:42 10.7 °C 8.1 °C 1008.8 hPa NW 4.7 km/h 14.5 km/h 84% 0.0 mm 63 W/m2
10:47 10.7 °C 7.9 °C 1008.8 hPa North 6.4 km/h 19.3 km/h 83% 0.0 mm 95 W/m2
10:52 10.8 °C 8 °C 1008.8 hPa ENE 3.2 km/h 14.5 km/h 83% 0.0 mm 90 W/m2
10:57 10.9 °C 7.9 °C 1009.1 hPa SW 1.4 km/h 9.7 km/h 82% 0.0 mm 195 W/m2
11:03 11.1 °C 8.1 °C 1009.1 hPa SW 4.7 km/h 20.9 km/h 82% 0.0 mm 116 W/m2
11:08 11.3 °C 8.2 °C 1009.5 hPa SE 4.7 km/h 19.3 km/h 81% 0.0 mm 220 W/m2
11:13 11.4 °C 8.1 °C 1009.1 hPa NNW 6.4 km/h 9.7 km/h 80% 0.0 mm 113 W/m2
11:18 11.5 °C 8 °C 1009.5 hPa West 4.7 km/h 19.3 km/h 79% 0.0 mm 98 W/m2
11:23 11.4 °C 8.1 °C 1009.5 hPa SSW 9.7 km/h 9.7 km/h 80% 0.0 mm 84 W/m2
11:28 11.4 °C 7.9 °C 1009.5 hPa West 17.7 km/h 19.3 km/h 79% 0.0 mm 113 W/m2
11:33 11.5 °C 8 °C 1009.5 hPa West 1.4 km/h 17.7 km/h 79% 0.0 mm 105 W/m2
11:38 11.6 °C 8.1 °C 1009.5 hPa West 6.4 km/h 19.3 km/h 79% 0.0 mm 86 W/m2
11:43 11.6 °C 8.1 °C 1009.5 hPa WNW 3.2 km/h 20.9 km/h 79% 0.0 mm 134 W/m2
11:48 11.6 °C 8.1 °C 1009.5 hPa WNW 13 km/h 19.3 km/h 79% 0.0 mm 221 W/m2
11:53 11.8 °C 8.3 °C 1009.5 hPa West 20.9 km/h 20.9 km/h 79% 0.0 mm 128 W/m2
11:58 11.8 °C 8.3 °C 1009.5 hPa West 4.7 km/h 17.7 km/h 79% 0.0 mm 69 W/m2
12:03 11.9 °C 8.4 °C 1009.5 hPa NW 3.2 km/h 16.1 km/h 79% 0.0 mm 176 W/m2
12:08 12.1 °C 8.6 °C 1009.8 hPa WNW 4.7 km/h 27.4 km/h 79% 0.0 mm 207 W/m2
12:13 12.2 °C 8.5 °C 1009.8 hPa SE 4.7 km/h 22.5 km/h 78% 0.0 mm 227 W/m2
12:18 12.4 °C 8.7 °C 1009.8 hPa Calm   16.1 km/h 78% 0.0 mm 120 W/m2
12:23 12.5 °C 8.6 °C 1009.8 hPa NW 4.7 km/h 24.1 km/h 77% 0.0 mm 113 W/m2
12:28 12.4 °C 8.3 °C 1009.8 hPa NW 7.9 km/h 19.3 km/h 76% 0.0 mm 186 W/m2
12:33 12.5 °C 8.4 °C 1009.8 hPa NW 16.3 km/h 24.1 km/h 76% 0.0 mm 114 W/m2
12:38 12.6 °C 8.1 °C 1009.8 hPa NNE 1.4 km/h 16.1 km/h 74% 0.0 mm 171 W/m2
12:43 12.8 °C 7.9 °C 1009.8 hPa West 4.7 km/h 20.9 km/h 72% 0.0 mm 202 W/m2
12:48 12.9 °C 7.8 °C 1009.5 hPa NW 6.4 km/h 19.3 km/h 71% 0.0 mm 388 W/m2
12:53 13.2 °C 8.1 °C 1009.8 hPa West 13 km/h 29 km/h 71% 0.0 mm 552 W/m2
12:58 13.4 °C 8 °C 1009.8 hPa South 11.1 km/h 24.1 km/h 70% 0.0 mm 461 W/m2
13:03 13.5 °C 7.9 °C 1009.8 hPa WNW 11.1 km/h 16.1 km/h 69% 0.0 mm 167 W/m2
13:08 13.5 °C 7.9 °C 1009.8 hPa SW 3.2 km/h 24.1 km/h 69% 0.0 mm 179 W/m2
13:13 13.6 °C 8 °C 1009.5 hPa WNW 3.2 km/h 27.4 km/h 69% 0.0 mm 179 W/m2
13:18 13.6 °C 8 °C 1009.5 hPa WSW 14.3 km/h 14.5 km/h 69% 0.0 mm 90 W/m2
13:23 13.6 °C 8 °C 1009.5 hPa NW 1.4 km/h 22.5 km/h 69% 0.0 mm 107 W/m2
13:28 13.4 °C 7.8 °C 1009.1 hPa WNW 11.1 km/h 17.7 km/h 69% 0.0 mm 105 W/m2
13:33 13.4 °C 7.8 °C 1009.5 hPa West 4.7 km/h 14.5 km/h 69% 0.0 mm 181 W/m2
13:38 13.6 °C 8.2 °C 1009.5 hPa Calm   6.4 km/h 70% 0.0 mm 216 W/m2
13:43 13.7 °C 7.7 °C 1009.5 hPa WNW 11.1 km/h 22.5 km/h 67% 0.0 mm 118 W/m2
13:48 13.6 °C 7.8 °C 1009.5 hPa NW 3.2 km/h 20.9 km/h 68% 0.0 mm 206 W/m2
13:53 13.6 °C 7.8 °C 1009.1 hPa West 4.7 km/h 14.5 km/h 68% 0.0 mm 163 W/m2
13:58 13.7 °C 7.7 °C 1009.5 hPa West 6.4 km/h 24.1 km/h 67% 0.0 mm 149 W/m2
14:03 13.6 °C 7.6 °C 1009.1 hPa NNE 4.7 km/h 17.7 km/h 67% 0.0 mm 86 W/m2
14:08 13.5 °C 7.3 °C 1009.1 hPa WNW 4.7 km/h 17.7 km/h 66% 0.0 mm 179 W/m2
14:13 13.6 °C 7.4 °C 1009.1 hPa NW 6.4 km/h 11.3 km/h 66% 0.0 mm 165 W/m2
14:18 13.8 °C 7.6 °C 1009.1 hPa WNW 7.9 km/h 27.4 km/h 66% 0.0 mm 188 W/m2
14:23 13.8 °C 7.3 °C 1009.1 hPa WNW 9.7 km/h 30.6 km/h 65% 0.0 mm 144 W/m2
14:28 13.7 °C 7.5 °C 1009.1 hPa NW 13 km/h 12.9 km/h 66% 0.0 mm 141 W/m2
14:33 13.7 °C 7.5 °C 1009.1 hPa Calm   30.6 km/h 66% 0.0 mm 160 W/m2
14:38 13.7 °C 7.5 °C 1009.1 hPa NW 3.2 km/h 12.9 km/h 66% 0.0 mm 125 W/m2
14:43 13.7 °C 7.5 °C 1009.1 hPa NNW 1.4 km/h 17.7 km/h 66% 0.0 mm 123 W/m2
14:48 13.8 °C 7.3 °C 1009.1 hPa North 4.7 km/h 20.9 km/h 65% 0.0 mm 167 W/m2
14:53 13.8 °C 7.3 °C 1008.8 hPa WNW 4.7 km/h 12.9 km/h 65% 0.0 mm 239 W/m2
14:58 13.8 °C 7.6 °C 1008.8 hPa WSW 6.4 km/h 20.9 km/h 66% 0.0 mm 127 W/m2
15:03 13.8 °C 7.3 °C 1009.1 hPa North 4.7 km/h 19.3 km/h 65% 0.0 mm 142 W/m2
15:08 13.8 °C 7.6 °C 1008.8 hPa West 6.4 km/h 11.3 km/h 66% 0.0 mm 146 W/m2
15:13 13.8 °C 7.8 °C 1008.8 hPa North 1.4 km/h 4.8 km/h 67% 0.0 mm 111 W/m2
15:18 13.8 °C 7.3 °C 1008.8 hPa NW 6.4 km/h 19.3 km/h 65% 0.0 mm 181 W/m2
15:23 13.9 °C 7.2 °C 1009.1 hPa West 14.3 km/h 32.2 km/h 64% 0.0 mm 123 W/m2
15:28 13.9 °C 7.2 °C 1009.1 hPa NW 7.9 km/h 25.7 km/h 64% 0.0 mm 88 W/m2
15:33 13.9 °C 7.2 °C 1009.1 hPa West 6.4 km/h 20.9 km/h 64% 0.0 mm 127 W/m2
15:38 13.8 °C 6.9 °C 1009.1 hPa WNW 6.4 km/h 25.7 km/h 63% 0.0 mm 120 W/m2
15:43 13.8 °C 7.1 °C 1008.8 hPa NW 14.3 km/h 19.3 km/h 64% 0.0 mm 98 W/m2
15:48 13.8 °C 7.3 °C 1008.8 hPa West 6.4 km/h 9.7 km/h 65% 0.0 mm 97 W/m2
15:53 13.8 °C 7.3 °C 1008.8 hPa NNE 4.7 km/h 12.9 km/h 65% 0.0 mm 91 W/m2
15:58 13.7 °C 7.5 °C 1008.5 hPa NNW 1.4 km/h 20.9 km/h 66% 0.0 mm 95 W/m2
16:03 13.6 °C 7.6 °C 1008.8 hPa SSW 7.9 km/h 16.1 km/h 67% 0.0 mm 83 W/m2
16:08 13.6 °C 7.6 °C 1008.8 hPa WNW 11.1 km/h 16.1 km/h 67% 0.0 mm 58 W/m2
16:13 13.2 °C 7.8 °C 1008.8 hPa WNW 9.7 km/h 16.1 km/h 70% 0.0 mm 37 W/m2
16:18 12.9 °C 7.8 °C 1009.1 hPa WNW 1.4 km/h 14.5 km/h 71% 0.0 mm 62 W/m2
16:23 12.8 °C 8.3 °C 1009.1 hPa WNW 4.7 km/h 6.4 km/h 74% 0.0 mm 26 W/m2
16:28 12.4 °C 8.3 °C 1009.1 hPa NW 16.3 km/h 17.7 km/h 76% 0.2 mm 26 W/m2
16:33 12.1 °C 8.4 °C 1009.1 hPa Calm   4.8 km/h 78% 0.5 mm 28 W/m2
16:38 11.8 °C 8.5 °C 1009.1 hPa North 1.4 km/h 16.1 km/h 80% 0.5 mm 26 W/m2
16:43 11.7 °C 8.5 °C 1009.1 hPa NW 4.7 km/h 24.1 km/h 81% 0.5 mm 16 W/m2
16:48 11.5 °C 8.7 °C 1009.5 hPa SSW 7.9 km/h 12.9 km/h 83% 0.8 mm 19 W/m2
16:53 11.3 °C 8.7 °C 1009.5 hPa NNW 7.9 km/h 24.1 km/h 84% 1.3 mm 12 W/m2
16:58 11.1 °C 8.7 °C 1009.8 hPa WNW 4.7 km/h 8 km/h 85% 1.5 mm 12 W/m2
17:03 10.8 °C 8.7 °C 1009.8 hPa West 6.4 km/h 14.5 km/h 87% 2.0 mm 11 W/m2
17:08 10.7 °C 8.8 °C 1009.8 hPa NW 13 km/h 14.5 km/h 88% 2.5 mm 14 W/m2
17:13 10.6 °C 8.9 °C 1009.8 hPa West 4.7 km/h 11.3 km/h 89% 2.8 mm 16 W/m2
17:18 10.6 °C 9 °C 1009.8 hPa NNW 1.4 km/h 14.5 km/h 90% 3.0 mm 14 W/m2
17:23 10.6 °C 9 °C 1009.8 hPa WSW 1.4 km/h 6.4 km/h 90% 3.3 mm 12 W/m2
17:28 10.5 °C 8.9 °C 1009.8 hPa WNW 1.4 km/h 4.8 km/h 90% 3.3 mm 18 W/m2
17:33 10.5 °C 8.9 °C 1009.8 hPa NW 1.4 km/h 4.8 km/h 90% 3.3 mm 12 W/m2
17:38 10.5 °C 9.1 °C 1009.8 hPa WSW 3.2 km/h 8 km/h 91% 3.3 mm 9 W/m2
17:43 10.4 °C 9 °C 1009.8 hPa WSW 3.2 km/h 11.3 km/h 91% 3.3 mm 7 W/m2
17:48 10.4 °C 9 °C 1009.8 hPa WNW 11.1 km/h 11.3 km/h 91% 3.6 mm 5 W/m2
17:53 10.4 °C 9 °C 1009.8 hPa West 4.7 km/h 9.7 km/h 91% 3.6 mm 7 W/m2
17:58 10.4 °C 9 °C 1010.2 hPa SW 6.4 km/h 9.7 km/h 91% 3.3 mm 0 W/m2
18:03 10.3 °C 9.1 °C 1009.8 hPa SE 1.4 km/h 3.2 km/h 92% 3.6 mm 0 W/m2
18:08 10.3 °C 9.1 °C 1010.2 hPa NW 7.9 km/h 12.9 km/h 92% 3.3 mm 0 W/m2
18:13 10.3 °C 9.1 °C 1010.2 hPa West 3.2 km/h 9.7 km/h 92% 4.1 mm 0 W/m2
18:18 10.2 °C 9 °C 1010.2 hPa South 3.2 km/h 20.9 km/h 92% 4.3 mm 0 W/m2
18:23 10.1 °C 8.9 °C 1010.2 hPa West 4.7 km/h 6.4 km/h 92% 4.3 mm 0 W/m2
18:28 10.1 °C 8.9 °C 1010.2 hPa West 3.2 km/h 8 km/h 92% 4.3 mm 0 W/m2
18:33 10.1 °C 8.9 °C 1010.5 hPa West 13 km/h 12.9 km/h 92% 4.3 mm 0 W/m2
18:38 10.1 °C 8.9 °C 1010.5 hPa WNW 4.7 km/h 11.3 km/h 92% 4.6 mm 0 W/m2
18:43 10 °C 8.8 °C 1010.5 hPa West 4.7 km/h 4.8 km/h 92% 5.1 mm 0 W/m2
18:48 10 °C 8.9 °C 1010.5 hPa SW 3.2 km/h 6.4 km/h 93% 5.1 mm 0 W/m2
18:53 9.9 °C 8.8 °C 1010.5 hPa WSW 7.9 km/h 11.3 km/h 93% 5.1 mm 0 W/m2
18:58 9.9 °C 8.8 °C 1010.5 hPa West 3.2 km/h 4.8 km/h 93% 5.1 mm 0 W/m2
19:03 9.9 °C 8.8 °C 1010.5 hPa West 1.4 km/h 4.8 km/h 93% 5.1 mm 0 W/m2
19:08 9.8 °C 8.7 °C 1010.5 hPa Calm   6.4 km/h 93% 5.1 mm 0 W/m2
19:13 9.8 °C 8.7 °C 1010.8 hPa WNW 1.4 km/h 3.2 km/h 93% 4.3 mm 0 W/m2
19:18 9.8 °C 8.9 °C 1011.2 hPa WNW 7.9 km/h 14.5 km/h 94% 4.3 mm 0 W/m2
19:23 9.4 °C 8.2 °C 1011.5 hPa WNW 3.2 km/h 9.7 km/h 92% 4.6 mm 0 W/m2
19:29 9.1 °C 7.7 °C 1011.5 hPa NW 1.4 km/h 12.9 km/h 91% 4.6 mm 0 W/m2
19:34 8.8 °C 7.4 °C 1011.9 hPa WSW 4.7 km/h 6.4 km/h 91% 4.3 mm 0 W/m2
19:39 8.6 °C 7.2 °C 1011.5 hPa WSW 3.2 km/h 3.2 km/h 91% 3.8 mm 0 W/m2
19:44 8.4 °C 7 °C 1011.9 hPa WNW 1.4 km/h 4.8 km/h 91% 3.3 mm 0 W/m2
19:49 8.3 °C 7.1 °C 1011.9 hPa WSW 3.2 km/h 4.8 km/h 92% 3.0 mm 0 W/m2
19:54 8.2 °C 7 °C 1011.9 hPa Calm   3.2 km/h 92% 2.5 mm 0 W/m2
19:59 8.2 °C 7 °C 1011.9 hPa Calm     92% 2.3 mm 0 W/m2
20:04 8.1 °C 6.9 °C 1012.2 hPa WSW 1.4 km/h 3.2 km/h 92% 1.8 mm 0 W/m2
20:09 8.1 °C 7 °C 1012.2 hPa Calm   3.2 km/h 93% 1.5 mm 0 W/m2
20:14 8.1 °C 7 °C 1012.5 hPa Calm     93% 1.3 mm 0 W/m2
20:19 8 °C 6.9 °C 1012.5 hPa Calm   4.8 km/h 93% 1.3 mm 0 W/m2
20:24 7.9 °C 6.8 °C 1012.5 hPa WSW 1.4 km/h 3.2 km/h 93% 0.5 mm 0 W/m2
20:29 7.8 °C 6.7 °C 1012.9 hPa WSW 3.2 km/h 3.2 km/h 93% 0.5 mm 0 W/m2
20:34 7.8 °C 6.7 °C 1012.9 hPa West 1.4 km/h 4.8 km/h 93% 0.2 mm 0 W/m2
20:39 7.8 °C 6.7 °C 1012.9 hPa WSW 4.7 km/h 6.4 km/h 93% 0.2 mm 0 W/m2
20:44 7.8 °C 6.7 °C 1012.9 hPa West 1.4 km/h 4.8 km/h 93% 0.2 mm 0 W/m2
20:49 7.8 °C 6.7 °C 1012.9 hPa West 3.2 km/h 3.2 km/h 93% 0.2 mm 0 W/m2
20:54 7.7 °C 6.6 °C 1013.2 hPa NW 3.2 km/h 3.2 km/h 93% 0.2 mm 0 W/m2
20:59 7.6 °C 6.5 °C 1013.2 hPa NW 1.4 km/h 3.2 km/h 93% 0.2 mm 0 W/m2
21:04 7.4 °C 6.3 °C 1013.2 hPa West 4.7 km/h 4.8 km/h 93% 0.2 mm 0 W/m2
21:09 7.3 °C 6.2 °C 1013.5 hPa West 1.4 km/h 4.8 km/h 93% 0.2 mm 0 W/m2
21:14 7.2 °C 6.1 °C 1013.5 hPa West 6.4 km/h 6.4 km/h 93% 0.2 mm 0 W/m2
21:19 7.1 °C 6 °C 1013.5 hPa West 6.4 km/h 9.7 km/h 93% 0.0 mm 0 W/m2
21:24 7.1 °C 6.2 °C 1013.5 hPa WSW 7.9 km/h 8 km/h 94% 0.0 mm 0 W/m2
21:29 7.1 °C 6.2 °C 1013.5 hPa West 6.4 km/h 11.3 km/h 94% 0.0 mm 0 W/m2
21:34 7.1 °C 6 °C 1013.5 hPa West 4.7 km/h 9.7 km/h 93% 0.0 mm 0 W/m2
21:39 7.1 °C 6 °C 1013.5 hPa West 4.7 km/h 9.7 km/h 93% 0.0 mm 0 W/m2
21:44 7.1 °C 6 °C 1013.9 hPa WSW 6.4 km/h 9.7 km/h 93% 0.0 mm 0 W/m2
21:49 7.2 °C 6.1 °C 1013.9 hPa West 3.2 km/h 9.7 km/h 93% 0.0 mm 0 W/m2
21:54 7.1 °C 6 °C 1013.9 hPa WNW 13 km/h 14.5 km/h 93% 0.0 mm 0 W/m2
21:59 7.1 °C 6 °C 1013.9 hPa West 3.2 km/h 8 km/h 93% 0.0 mm 0 W/m2
22:04 7.1 °C 5.9 °C 1014.2 hPa West 6.4 km/h 14.5 km/h 92% 0.0 mm 0 W/m2
22:09 7.1 °C 5.9 °C 1014.2 hPa WNW 6.4 km/h 11.3 km/h 92% 0.0 mm 0 W/m2
22:14 7.1 °C 5.9 °C 1014.2 hPa WNW 3.2 km/h 14.5 km/h 92% 0.0 mm 0 W/m2
22:19 7.2 °C 6 °C 1014.6 hPa West 9.7 km/h 12.9 km/h 92% 0.0 mm 0 W/m2
22:24 7.2 °C 6 °C 1014.6 hPa WSW 4.7 km/h 12.9 km/h 92% 0.0 mm 0 W/m2
22:29 7.2 °C 6 °C 1014.6 hPa WSW 4.7 km/h 11.3 km/h 92% 0.0 mm 0 W/m2
22:34 7.2 °C 6 °C 1014.6 hPa West 6.4 km/h 11.3 km/h 92% 0.0 mm 0 W/m2
22:39 7.2 °C 6 °C 1014.9 hPa West 6.4 km/h 12.9 km/h 92% 0.0 mm 0 W/m2
22:44 7.2 °C 6 °C 1014.9 hPa West 4.7 km/h 9.7 km/h 92% 0.0 mm 0 W/m2
22:49 7.2 °C 6 °C 1014.9 hPa West 3.2 km/h 6.4 km/h 92% 0.0 mm 0 W/m2
22:54 7.1 °C 5.7 °C 1015.2 hPa WNW 4.7 km/h 4.8 km/h 91% 0.0 mm 0 W/m2
22:59 6.9 °C 5.5 °C 1015.2 hPa West 6.4 km/h 9.7 km/h 91% 0.0 mm 0 W/m2
23:04 6.9 °C 5.7 °C 1015.2 hPa WNW 1.4 km/h 4.8 km/h 92% 0.0 mm 0 W/m2
23:09 6.8 °C 5.6 °C 1015.6 hPa WSW 3.2 km/h 6.4 km/h 92% 0.0 mm 0 W/m2
23:14 6.8 °C 5.6 °C 1015.6 hPa WSW 1.4 km/h 4.8 km/h 92% 0.0 mm 0 W/m2
23:19 6.8 °C 5.6 °C 1015.6 hPa West 3.2 km/h 6.4 km/h 92% 0.0 mm 0 W/m2
23:24 6.8 °C 5.6 °C 1015.6 hPa Calm   4.8 km/h 92% 0.0 mm 0 W/m2
23:29 6.8 °C 5.6 °C 1015.6 hPa WNW 4.7 km/h 11.3 km/h 92% 0.0 mm 0 W/m2
23:34 6.7 °C 5.5 °C 1015.9 hPa West 3.2 km/h 4.8 km/h 92% 0.0 mm 0 W/m2
23:39 6.6 °C 5.4 °C 1015.9 hPa West 4.7 km/h 11.3 km/h 92% 0.0 mm 0 W/m2
23:44 6.6 °C 5.4 °C 1015.9 hPa West 4.7 km/h 11.3 km/h 92% 0.0 mm 0 W/m2
23:49 6.6 °C 5.4 °C 1015.9 hPa West 3.2 km/h 6.4 km/h 92% 0.0 mm 0 W/m2
23:54 6.6 °C 5.4 °C 1016.3 hPa West 11.1 km/h 11.3 km/h 92% 0.0 mm 0 W/m2
23:59 6.5 °C 5.3 °C 1016.3 hPa West 4.7 km/h 12.9 km/h 92% 0.0 mm 0 W/m2
Juneau County Weather
Compliments of Weather Underground - 4 mb